createdAt,value
2022-08-30T00:02:26.890Z,10.20
2022-08-30T00:05:18.257Z,10.10
2022-08-30T00:08:07.913Z,10.03
2022-08-30T00:10:57.373Z,10.13
2022-08-30T00:13:48.975Z,10.50
2022-08-30T00:16:38.363Z,10.37
2022-08-30T00:19:29.214Z,10.40
2022-08-30T00:22:18.709Z,10.00
2022-08-30T00:25:09.626Z,10.30
2022-08-30T00:27:59.089Z,9.90
2022-08-30T00:30:49.246Z,10.17
2022-08-30T00:33:40.404Z,10.00
2022-08-30T00:36:31.108Z,10.37
2022-08-30T00:39:20.491Z,9.63
2022-08-30T00:42:11.197Z,9.83
2022-08-30T00:45:01.493Z,10.47
2022-08-30T00:47:51.485Z,10.50
2022-08-30T00:51:00.138Z,10.13
2022-08-30T00:53:57.804Z,10.20
2022-08-30T00:56:48.341Z,10.60
2022-08-30T00:59:38.366Z,10.40
2022-08-30T01:02:33.401Z,10.73
2022-08-30T01:05:24.075Z,10.30
2022-08-30T01:08:15.642Z,10.50
2022-08-30T01:11:07.057Z,10.60
2022-08-30T01:13:57.984Z,10.63
2022-08-30T01:16:47.656Z,10.30
2022-08-30T01:19:43.426Z,10.40
2022-08-30T01:22:41.932Z,10.03
2022-08-30T01:25:38.245Z,10.00
2022-08-30T01:28:30.390Z,10.10
2022-08-30T01:31:19.934Z,10.30
2022-08-30T01:34:10.410Z,10.23
2022-08-30T01:36:59.839Z,10.30
2022-08-30T01:39:49.470Z,10.20
2022-08-30T01:42:40.302Z,10.00
2022-08-30T01:45:29.923Z,10.37
2022-08-30T01:48:19.391Z,10.27
2022-08-30T01:51:12.057Z,10.30
2022-08-30T01:54:02.028Z,10.37
2022-08-30T01:56:51.569Z,10.40
2022-08-30T01:59:47.635Z,10.70
2022-08-30T02:02:37.995Z,10.00
2022-08-30T02:05:27.695Z,10.13
2022-08-30T02:08:17.198Z,10.30
2022-08-30T02:11:07.068Z,10.23
2022-08-30T02:13:56.512Z,10.20
2022-08-30T02:16:48.509Z,10.30
2022-08-30T02:19:38.661Z,10.03
2022-08-30T02:22:28.162Z,10.20
2022-08-30T02:25:20.562Z,10.80
2022-08-30T02:28:10.851Z,10.50
2022-08-30T02:31:04.685Z,10.10
2022-08-30T02:33:57.170Z,10.20
2022-08-30T02:36:47.481Z,10.10
2022-08-30T02:39:37.042Z,10.10
2022-08-30T02:42:26.386Z,10.53
2022-08-30T02:45:16.650Z,10.70
2022-08-30T02:48:08.721Z,9.90
2022-08-30T02:51:10.555Z,10.17
2022-08-30T02:54:00.757Z,10.57
2022-08-30T02:56:51.037Z,10.57
2022-08-30T02:59:44.170Z,10.63
2022-08-30T03:02:33.558Z,10.57
2022-08-30T03:05:23.165Z,11.00
2022-08-30T03:08:14.069Z,10.60
2022-08-30T03:11:04.602Z,10.37
2022-08-30T03:13:54.014Z,10.60
2022-08-30T03:16:43.493Z,10.20
2022-08-30T03:19:32.986Z,10.37
2022-08-30T03:22:22.852Z,10.20
2022-08-30T03:25:13.939Z,10.33
2022-08-30T03:28:03.644Z,10.43
2022-08-30T03:30:53.010Z,10.13
2022-08-30T03:33:42.465Z,10.30
2022-08-30T03:36:31.866Z,10.40
2022-08-30T03:39:23.155Z,10.07
2022-08-30T03:42:14.190Z,9.93
2022-08-30T03:45:07.455Z,10.40
2022-08-30T03:47:56.873Z,10.17
2022-08-30T03:50:46.201Z,9.83
2022-08-30T03:53:35.657Z,10.10
2022-08-30T03:56:25.169Z,10.27
2022-08-30T03:59:16.470Z,10.20
2022-08-30T04:02:06.148Z,10.40
2022-08-30T04:04:55.553Z,9.90
2022-08-30T04:07:45.880Z,10.13
2022-08-30T04:10:35.390Z,10.67
2022-08-30T04:13:25.787Z,10.20
2022-08-30T04:16:17.295Z,10.03
2022-08-30T04:19:06.742Z,9.80
2022-08-30T04:21:57.359Z,9.90
2022-08-30T04:24:46.722Z,10.40
2022-08-30T04:27:36.238Z,10.43
2022-08-30T04:30:25.686Z,10.13
2022-08-30T04:33:17.729Z,10.40
2022-08-30T04:36:09.345Z,10.10
2022-08-30T04:38:58.685Z,10.07
2022-08-30T04:41:48.478Z,10.57
2022-08-30T04:44:37.890Z,10.33
2022-08-30T04:47:27.559Z,10.07
2022-08-30T04:50:21.539Z,10.40
2022-08-30T04:53:10.913Z,10.20
2022-08-30T04:56:00.341Z,10.00
2022-08-30T04:58:52.392Z,10.27
2022-08-30T05:01:45.631Z,9.80
2022-08-30T05:04:35.317Z,10.37
2022-08-30T05:07:26.146Z,10.17
2022-08-30T05:10:15.603Z,10.33
2022-08-30T05:13:05.119Z,10.17
2022-08-30T05:15:54.563Z,9.80
2022-08-30T05:18:44.549Z,10.10
2022-08-30T05:21:33.962Z,10.27
2022-08-30T05:24:24.788Z,9.83
2022-08-30T05:27:14.200Z,10.03
2022-08-30T05:30:03.826Z,10.70
2022-08-30T05:32:53.789Z,10.40
2022-08-30T05:35:43.337Z,10.53
2022-08-30T05:38:32.700Z,10.20
2022-08-30T05:41:26.410Z,10.17
2022-08-30T05:44:16.560Z,10.00
2022-08-30T05:47:06.501Z,10.40
2022-08-30T05:49:56.122Z,9.83
2022-08-30T05:52:46.168Z,9.90
2022-08-30T05:55:35.653Z,9.87
2022-08-30T05:58:26.357Z,9.97
2022-08-30T06:01:25.222Z,10.00
2022-08-30T06:04:15.450Z,9.57
2022-08-30T06:07:05.652Z,10.17
2022-08-30T06:09:55.017Z,9.90
2022-08-30T06:12:44.391Z,9.60
2022-08-30T06:15:35.148Z,10.00
2022-08-30T06:18:28.738Z,9.80
2022-08-30T06:21:18.965Z,9.60
2022-08-30T06:24:11.633Z,9.80
2022-08-30T06:27:01.007Z,9.77
2022-08-30T06:29:52.952Z,9.43
2022-08-30T06:32:43.772Z,9.43
2022-08-30T06:35:38.229Z,9.17
2022-08-30T06:38:36.528Z,9.30
2022-08-30T06:41:30.298Z,9.57
2022-08-30T06:44:19.653Z,9.37
2022-08-30T06:47:09.073Z,9.23
2022-08-30T06:50:00.966Z,9.47
2022-08-30T06:52:50.434Z,9.23
2022-08-30T06:55:39.834Z,9.47
2022-08-30T06:58:30.544Z,9.60
2022-08-30T07:01:23.132Z,9.30
2022-08-30T07:04:12.505Z,9.10
2022-08-30T07:07:03.273Z,9.43
2022-08-30T07:09:53.897Z,9.47
2022-08-30T07:12:43.400Z,9.40
2022-08-30T07:15:33.952Z,9.20
2022-08-30T07:18:45.535Z,9.57
2022-08-30T07:21:38.043Z,9.00
2022-08-30T07:24:28.735Z,8.63
2022-08-30T07:27:18.205Z,9.10
2022-08-30T07:30:09.733Z,8.90
2022-08-30T07:32:59.999Z,8.90
2022-08-30T07:35:49.362Z,9.10
2022-08-30T07:38:39.142Z,8.97
2022-08-30T07:41:34.119Z,9.03
2022-08-30T07:44:25.089Z,9.37
2022-08-30T07:47:14.637Z,9.00
2022-08-30T07:50:05.041Z,8.70
2022-08-30T07:52:54.639Z,9.02
2022-08-30T07:55:44.168Z,9.00
2022-08-30T07:58:35.181Z,9.27
2022-08-30T08:01:25.567Z,8.60
2022-08-30T08:04:15.110Z,9.20
2022-08-30T08:07:04.984Z,8.75
2022-08-30T08:09:54.408Z,8.98
2022-08-30T08:12:43.822Z,8.93
2022-08-30T08:15:35.177Z,8.73
2022-08-30T08:18:24.639Z,8.45
2022-08-30T08:21:14.063Z,8.70
2022-08-30T08:24:04.341Z,8.40
2022-08-30T08:26:53.888Z,8.50
2022-08-30T08:29:43.217Z,8.40
2022-08-30T08:32:34.020Z,8.35
2022-08-30T08:35:23.524Z,8.40
2022-08-30T08:38:13.728Z,8.20
2022-08-30T08:41:10.525Z,8.27
2022-08-30T08:44:00.594Z,8.10
2022-08-30T08:46:58.113Z,8.02
2022-08-30T08:49:54.190Z,8.13
2022-08-30T08:53:25.044Z,8.68
2022-08-30T08:56:23.946Z,8.50
2022-08-30T08:59:16.679Z,8.20
2022-08-30T09:02:27.410Z,8.30
2022-08-30T09:05:22.858Z,8.47
2022-08-30T09:08:16.192Z,8.43
2022-08-30T09:11:13.402Z,8.73
2022-08-30T09:14:03.170Z,8.50
2022-08-30T09:17:02.787Z,8.80
2022-08-30T09:20:01.050Z,8.77
2022-08-30T09:22:51.846Z,9.47
2022-08-30T09:25:54.419Z,10.27
2022-08-30T09:28:49.785Z,9.50
2022-08-30T09:32:01.357Z,9.50
2022-08-30T09:35:00.684Z,9.33
2022-08-30T09:37:57.803Z,9.10
2022-08-30T09:40:51.175Z,8.90
2022-08-30T09:43:40.622Z,9.13
2022-08-30T09:46:30.623Z,9.30
2022-08-30T09:49:35.869Z,8.90
2022-08-30T09:52:42.894Z,8.90
2022-08-30T09:56:00.333Z,9.17
2022-08-30T09:59:04.583Z,8.80
2022-08-30T10:02:02.811Z,8.50
2022-08-30T10:05:04.085Z,8.97
2022-08-30T10:08:04.305Z,8.80
2022-08-30T10:10:59.999Z,8.70
2022-08-30T10:14:48.876Z,8.63
2022-08-30T10:17:49.944Z,9.00
2022-08-30T10:20:50.216Z,8.47
2022-08-30T10:23:47.102Z,8.60
2022-08-30T10:26:43.674Z,8.17
2022-08-30T10:29:43.389Z,8.40
2022-08-30T10:32:40.597Z,8.37
2022-08-30T10:35:38.589Z,8.30
2022-08-30T10:38:33.275Z,8.47
2022-08-30T10:41:35.778Z,8.50
2022-08-30T10:44:32.662Z,8.37
2022-08-30T10:47:32.095Z,8.70
2022-08-30T10:50:28.519Z,8.23
2022-08-30T10:53:21.433Z,8.30
2022-08-30T10:56:16.169Z,8.67
2022-08-30T10:59:07.397Z,8.40
2022-08-30T11:02:24.850Z,8.27
2022-08-30T11:05:48.599Z,8.70
2022-08-30T11:09:16.508Z,8.00
2022-08-30T11:12:38.001Z,8.30
2022-08-30T11:15:31.558Z,8.30
2022-08-30T11:18:23.466Z,8.40
2022-08-30T11:21:25.178Z,8.30
2022-08-30T11:24:17.981Z,8.70
2022-08-30T11:27:07.451Z,8.40
2022-08-30T11:29:59.782Z,8.70
2022-08-30T11:33:09.382Z,8.93
2022-08-30T11:36:00.484Z,8.63
2022-08-30T11:39:04.177Z,8.80
2022-08-30T11:42:15.256Z,8.90
2022-08-30T11:45:55.612Z,8.83
2022-08-30T11:48:54.601Z,9.20
2022-08-30T11:52:33.019Z,8.90
2022-08-30T11:55:50.377Z,9.10
2022-08-30T11:58:51.444Z,8.93
2022-08-30T12:01:49.640Z,8.90
2022-08-30T12:04:47.101Z,9.10
2022-08-30T12:08:01.800Z,9.30
2022-08-30T12:10:57.383Z,9.20
2022-08-30T12:13:55.621Z,9.80
2022-08-30T12:17:02.775Z,9.40
2022-08-30T12:19:52.897Z,9.70
2022-08-30T12:22:42.565Z,9.40
2022-08-30T12:25:35.732Z,9.00
2022-08-30T12:28:27.174Z,9.30
2022-08-30T12:31:21.653Z,8.93
2022-08-30T12:34:21.870Z,9.33
2022-08-30T12:37:24.628Z,9.20
2022-08-30T12:40:20.255Z,9.00
2022-08-30T12:43:38.766Z,9.10
2022-08-30T12:46:32.232Z,9.03
2022-08-30T12:49:28.597Z,9.47
2022-08-30T12:52:23.407Z,9.27
2022-08-30T12:55:19.436Z,8.90
2022-08-30T12:58:12.492Z,9.40
2022-08-30T13:01:27.442Z,9.57
2022-08-30T13:04:23.988Z,9.20
2022-08-30T13:07:13.372Z,9.30
2022-08-30T13:10:20.014Z,9.17
2022-08-30T13:13:09.471Z,9.20
2022-08-30T13:16:10.447Z,8.97
2022-08-30T13:19:27.745Z,9.40
2022-08-30T13:22:30.148Z,9.60
2022-08-30T13:25:19.620Z,9.20
2022-08-30T13:28:09.772Z,9.00
2022-08-30T13:31:01.271Z,8.90
2022-08-30T13:33:55.183Z,9.00
2022-08-30T13:36:49.619Z,9.20
2022-08-30T13:39:39.017Z,9.37
2022-08-30T13:42:32.638Z,9.80
2022-08-30T13:48:33.568Z,9.50
2022-08-30T13:51:22.952Z,9.50
2022-08-30T13:54:14.601Z,9.57
2022-08-30T13:57:04.471Z,9.80
2022-08-30T13:59:54.040Z,10.07
2022-08-30T14:02:46.650Z,9.40
2022-08-30T14:05:50.090Z,9.73
2022-08-30T14:08:47.803Z,10.53
2022-08-30T14:11:40.078Z,9.70
2022-08-30T14:14:42.470Z,9.63
2022-08-30T14:17:35.532Z,9.70
2022-08-30T14:20:25.192Z,10.20
2022-08-30T14:23:17.533Z,9.80
2022-08-30T14:26:14.842Z,9.80
2022-08-30T14:29:09.866Z,9.70
2022-08-30T14:32:00.544Z,9.43
2022-08-30T14:34:49.998Z,10.07
2022-08-30T14:37:40.558Z,9.63
2022-08-30T14:40:31.823Z,9.53
2022-08-30T14:43:21.657Z,9.60
2022-08-30T14:46:13.645Z,9.93
2022-08-30T14:49:03.129Z,9.70
2022-08-30T14:51:55.501Z,10.00
2022-08-30T14:54:44.897Z,10.20
2022-08-30T14:57:35.657Z,9.97
2022-08-30T15:00:28.135Z,9.83
2022-08-30T15:03:17.576Z,9.67
2022-08-30T15:06:08.177Z,9.87
2022-08-30T15:08:58.807Z,9.97
2022-08-30T15:11:48.721Z,9.50
2022-08-30T15:14:40.351Z,9.50
2022-08-30T15:17:29.733Z,9.50
2022-08-30T15:20:20.114Z,9.30
2022-08-30T15:23:10.183Z,9.70
2022-08-30T15:26:00.151Z,9.90
2022-08-30T15:28:49.733Z,9.50
2022-08-30T15:31:41.361Z,9.90
2022-08-30T15:34:32.208Z,9.40
2022-08-30T15:37:22.557Z,9.80
2022-08-30T15:40:12.604Z,9.83
2022-08-30T15:43:04.115Z,9.77
2022-08-30T15:45:55.744Z,9.40
2022-08-30T15:48:47.636Z,9.80
2022-08-30T15:51:41.624Z,9.70
2022-08-30T15:54:35.486Z,9.70
2022-08-30T15:57:25.653Z,9.97
2022-08-30T16:00:16.817Z,9.70
2022-08-30T16:03:06.176Z,9.67
2022-08-30T16:05:56.908Z,9.40
2022-08-30T16:08:46.838Z,9.10
2022-08-30T16:11:37.215Z,9.67
2022-08-30T16:14:27.625Z,9.53
2022-08-30T16:17:17.204Z,9.43
2022-08-30T16:20:10.035Z,10.00
2022-08-30T16:23:02.709Z,9.40
2022-08-30T16:25:52.144Z,9.97
2022-08-30T16:28:42.000Z,9.30
2022-08-30T16:31:34.941Z,9.63
2022-08-30T16:34:24.605Z,9.30
2022-08-30T16:37:16.184Z,9.63
2022-08-30T16:40:11.499Z,9.50
2022-08-30T16:43:00.954Z,9.67
2022-08-30T16:45:53.774Z,9.70
2022-08-30T16:48:45.625Z,9.50
2022-08-30T16:51:36.464Z,9.17
2022-08-30T16:54:25.910Z,9.60
2022-08-30T16:57:16.737Z,9.23
2022-08-30T17:00:08.044Z,9.00
2022-08-30T17:03:03.028Z,9.20
2022-08-30T17:05:53.378Z,9.43
2022-08-30T17:08:46.824Z,9.10
2022-08-30T17:11:40.230Z,9.40
2022-08-30T17:14:31.290Z,9.30
2022-08-30T17:17:22.085Z,9.10
2022-08-30T17:20:12.798Z,9.20
2022-08-30T17:23:02.403Z,9.20
2022-08-30T17:25:52.382Z,9.37
2022-08-30T17:28:42.511Z,9.23
2022-08-30T17:31:35.137Z,9.40
2022-08-30T17:34:26.590Z,9.53
2022-08-30T17:37:17.980Z,9.13
2022-08-30T17:40:14.449Z,9.60
2022-08-30T17:43:04.299Z,9.07
2022-08-30T17:45:53.742Z,9.70
2022-08-30T17:48:46.430Z,9.60
2022-08-30T17:51:36.936Z,9.37
2022-08-30T17:54:27.271Z,9.50
2022-08-30T17:57:16.662Z,9.30
2022-08-30T18:00:08.815Z,9.30
2022-08-30T18:02:58.254Z,9.70
2022-08-30T18:05:49.112Z,9.40
2022-08-30T18:08:38.937Z,9.60
2022-08-30T18:11:28.445Z,9.50
2022-08-30T18:14:18.804Z,9.50
2022-08-30T18:17:09.141Z,9.50
2022-08-30T18:19:58.537Z,9.33
2022-08-30T18:22:49.366Z,9.23
2022-08-30T18:25:40.050Z,9.47
2022-08-30T18:28:30.727Z,9.40
2022-08-30T18:31:20.366Z,9.57
2022-08-30T18:34:12.206Z,9.70
2022-08-30T18:37:02.079Z,9.33
2022-08-30T18:39:53.323Z,9.30
2022-08-30T18:42:42.857Z,9.10
2022-08-30T18:45:33.465Z,9.33
2022-08-30T18:48:23.101Z,9.20
2022-08-30T18:51:20.670Z,9.50
2022-08-30T18:54:11.250Z,9.60
2022-08-30T18:57:02.080Z,9.60
2022-08-30T18:59:51.857Z,9.50
2022-08-30T19:02:43.604Z,9.20
2022-08-30T19:05:35.363Z,9.47
2022-08-30T19:08:24.913Z,9.57
2022-08-30T19:11:14.390Z,9.30
2022-08-30T19:14:07.658Z,9.30
2022-08-30T19:16:57.408Z,9.20
2022-08-30T19:19:52.173Z,9.37
2022-08-30T19:23:08.549Z,9.10
2022-08-30T19:25:53.441Z,9.30
2022-08-30T19:28:43.871Z,9.33
2022-08-30T19:31:35.470Z,9.10
2022-08-30T19:34:24.949Z,9.20
2022-08-30T19:37:17.808Z,9.40
2022-08-30T19:40:12.636Z,9.27
2022-08-30T19:43:02.161Z,9.63
2022-08-30T19:45:55.967Z,9.33
2022-08-30T19:48:46.769Z,9.10
2022-08-30T19:51:36.398Z,9.67
2022-08-30T19:54:26.198Z,9.37
2022-08-30T19:57:16.737Z,9.10
2022-08-30T20:00:09.249Z,9.60
2022-08-30T20:03:05.786Z,9.90
2022-08-30T20:05:57.574Z,9.30
2022-08-30T20:08:47.829Z,9.67
2022-08-30T20:11:42.286Z,9.40
2022-08-30T20:14:32.536Z,9.67
2022-08-30T20:17:22.072Z,9.50
2022-08-30T20:20:16.287Z,9.50
2022-08-30T20:23:11.331Z,9.80
2022-08-30T20:26:05.838Z,9.63
2022-08-30T20:28:55.362Z,9.30
2022-08-30T20:31:45.575Z,9.90
2022-08-30T20:34:35.234Z,9.67
2022-08-30T20:37:24.593Z,9.70
2022-08-30T20:40:16.769Z,10.10
2022-08-30T20:43:07.240Z,9.77
2022-08-30T20:45:57.044Z,10.27
2022-08-30T20:48:47.567Z,9.90
2022-08-30T20:51:36.959Z,9.90
2022-08-30T20:54:28.881Z,10.10
2022-08-30T20:57:24.278Z,10.60
2022-08-30T21:00:15.406Z,10.43
2022-08-30T21:03:07.770Z,10.20
2022-08-30T21:06:16.314Z,10.27
2022-08-30T21:09:06.752Z,10.40
2022-08-30T21:11:56.109Z,10.20
2022-08-30T21:14:46.948Z,10.07
2022-08-30T21:17:36.402Z,10.13
2022-08-30T21:20:30.297Z,9.97
2022-08-30T21:23:19.762Z,10.20
2022-08-30T21:26:10.658Z,10.60
2022-08-30T21:29:00.327Z,10.10
2022-08-30T21:31:51.149Z,10.10
2022-08-30T21:34:54.389Z,10.23
2022-08-30T21:37:43.732Z,9.87
2022-08-30T21:40:35.044Z,9.90
2022-08-30T21:43:24.431Z,10.20
2022-08-30T21:46:14.021Z,9.90
2022-08-30T21:49:09.828Z,10.00
2022-08-30T21:51:59.251Z,9.87
2022-08-30T21:54:48.812Z,10.20
2022-08-30T21:57:38.387Z,10.10
2022-08-30T22:00:27.995Z,9.80
2022-08-30T22:03:17.567Z,10.30
2022-08-30T22:06:08.582Z,9.80
2022-08-30T22:08:58.081Z,9.70
2022-08-30T22:11:48.130Z,10.13
2022-08-30T22:14:39.488Z,10.10
2022-08-30T22:17:28.948Z,10.20
2022-08-30T22:20:18.817Z,10.37
2022-08-30T22:23:10.208Z,10.17
2022-08-30T22:26:01.406Z,10.63
2022-08-30T22:28:51.434Z,9.90
2022-08-30T22:31:41.243Z,10.60
2022-08-30T22:34:32.209Z,9.90
2022-08-30T22:37:21.581Z,10.30
2022-08-30T22:40:12.937Z,10.27
2022-08-30T22:43:02.481Z,10.07
2022-08-30T22:45:51.954Z,10.27
2022-08-30T22:48:46.232Z,10.10
2022-08-30T22:51:36.187Z,9.60
2022-08-30T22:54:25.636Z,10.13
2022-08-30T22:57:19.393Z,10.37
2022-08-30T23:00:15.027Z,10.10
2022-08-30T23:03:05.055Z,9.90
2022-08-30T23:05:54.417Z,10.13
2022-08-30T23:08:44.082Z,10.23
2022-08-30T23:11:33.725Z,10.00
2022-08-30T23:14:24.471Z,10.30
2022-08-30T23:17:13.917Z,10.20
2022-08-30T23:20:03.862Z,10.30
2022-08-30T23:22:58.238Z,10.23
2022-08-30T23:26:04.784Z,10.40
2022-08-30T23:29:11.872Z,10.23
2022-08-30T23:32:20.284Z,10.20
2022-08-30T23:35:30.293Z,10.20
2022-08-30T23:38:37.292Z,10.20
2022-08-30T23:41:44.424Z,10.20
2022-08-30T23:44:51.429Z,10.23
2022-08-30T23:47:59.603Z,10.00
2022-08-30T23:51:06.357Z,10.20
2022-08-30T23:54:13.021Z,10.23
2022-08-30T23:57:19.992Z,10.53
